Proberta, California
Current Conditions -  °F | °C
As of 7:54 AM on Friday 19 Dec 2014 (Local Time) from KRBL Reporting Station
Overcast Overcast  
Wind Chill: 51°   Ceiling: 1000
Heat Index: 51°   Visibility: 10mi
Dew Point: 48°   Wind: 17mph
Humidity: 89%   Direction: 160°SSE
Pressure: 30.11"   Gusts: 24mph
Location:  40.08°N, 122.17°W
Report Text: KRBL 191554Z AUTO 16015G21KT 10SM OVC010 11/09 A3011 RMK AO2 RAE40 CIG 008V013 PRESRR SLP196 P0002 T01060089
Loading
Personal Weather Stations






























Interactive Weather Map New forecast layout! Learn more

10-Day Weather Forecast

Advertisements
Track Severe Weather on mobile